RS-0011 weather

Surčin Airstrip
Surčin, Srem, Serbia

Public forecast

Using degrees Celsius for public forecast. Weather courtesy of forecast.io.

Closest aviation weather report (METAR) to Surčin Airstrip

Closest report is Belgrade Nikola Tesla Airport, 3.0 nm (5.5 km) N. Retrieved 2019/12/07 11:30 UTC (0 seconds ago):

LYBE 071130Z VRB02KT 6000 NSC 09/05 Q1017 NOSIG

Closest aviation forecast (TAF) to Surčin Airstrip

Closest forecast is Belgrade Nikola Tesla Airport, 3.0 nm (5.5 km) N. Retrieved 2019/12/07 06:21 UTC (5 hours ago):

TAF LYBE 070500Z 0706/0806 16004KT 3000 BR SCT040 TX07/0712Z TN02/0706Z BECMG 0709/0711 6000 NSW TEMPO 0716/0721 3000 -RA BKN008 BKN027 BECMG 0721/0723 2000 BR BKN007 BECMG 0800/0802 0600 FG BKN003